sensor_id;sensor_type;location;lat;lon;timestamp;P1;durP1;ratioP1;P2;durP2;ratioP2
3573;SDS011;1801;51.050;6.246;2024-01-15T00:00:30;32.00;;;9.80;;
3573;SDS011;1801;51.050;6.246;2024-01-15T00:02:55;45.43;;;12.77;;
3573;SDS011;1801;51.050;6.246;2024-01-15T00:05:20;53.57;;;14.80;;
3573;SDS011;1801;51.050;6.246;2024-01-15T00:07:45;43.87;;;14.67;;
3573;SDS011;1801;51.050;6.246;2024-01-15T00:10:11;35.90;;;12.27;;
3573;SDS011;1801;51.050;6.246;2024-01-15T00:12:36;59.37;;;13.10;;
3573;SDS011;1801;51.050;6.246;2024-01-15T00:15:01;50.67;;;14.23;;
3573;SDS011;1801;51.050;6.246;2024-01-15T00:17:26;44.80;;;16.43;;
3573;SDS011;1801;51.050;6.246;2024-01-15T00:19:51;40.97;;;10.37;;
3573;SDS011;1801;51.050;6.246;2024-01-15T00:22:17;38.70;;;11.50;;
3573;SDS011;1801;51.050;6.246;2024-01-15T00:24:42;34.50;;;11.87;;
3573;SDS011;1801;51.050;6.246;2024-01-15T00:27:07;34.50;;;11.13;;
3573;SDS011;1801;51.050;6.246;2024-01-15T00:29:32;30.23;;;11.00;;
3573;SDS011;1801;51.050;6.246;2024-01-15T00:31:57;35.17;;;12.53;;
3573;SDS011;1801;51.050;6.246;2024-01-15T00:34:23;32.93;;;11.70;;
3573;SDS011;1801;51.050;6.246;2024-01-15T00:36:48;43.80;;;11.90;;
3573;SDS011;1801;51.050;6.246;2024-01-15T00:39:13;33.90;;;9.20;;
3573;SDS011;1801;51.050;6.246;2024-01-15T00:41:38;33.20;;;12.30;;
3573;SDS011;1801;51.050;6.246;2024-01-15T00:44:03;39.67;;;14.07;;
3573;SDS011;1801;51.050;6.246;2024-01-15T00:46:29;39.23;;;11.77;;
3573;SDS011;1801;51.050;6.246;2024-01-15T00:48:54;44.50;;;11.70;;
3573;SDS011;1801;51.050;6.246;2024-01-15T00:51:19;39.63;;;13.43;;
3573;SDS011;1801;51.050;6.246;2024-01-15T00:53:44;46.83;;;13.33;;
3573;SDS011;1801;51.050;6.246;2024-01-15T00:56:09;36.70;;;9.20;;
3573;SDS011;1801;51.050;6.246;2024-01-15T00:58:34;31.20;;;12.87;;
3573;SDS011;1801;51.050;6.246;2024-01-15T01:01:00;27.07;;;10.07;;
3573;SDS011;1801;51.050;6.246;2024-01-15T01:03:25;38.40;;;12.77;;
3573;SDS011;1801;51.050;6.246;2024-01-15T01:05:50;50.77;;;13.93;;
3573;SDS011;1801;51.050;6.246;2024-01-15T01:08:15;31.60;;;11.10;;
3573;SDS011;1801;51.050;6.246;2024-01-15T01:10:41;33.37;;;10.87;;
3573;SDS011;1801;51.050;6.246;2024-01-15T01:13:07;44.72;;;14.65;;
3573;SDS011;1801;51.050;6.246;2024-01-15T01:15:32;40.13;;;12.50;;
3573;SDS011;1801;51.050;6.246;2024-01-15T01:17:58;34.90;;;13.00;;
3573;SDS011;1801;51.050;6.246;2024-01-15T01:20:23;18.43;;;6.73;;
3573;SDS011;1801;51.050;6.246;2024-01-15T01:22:48;41.17;;;13.80;;
3573;SDS011;1801;51.050;6.246;2024-01-15T01:25:13;16.40;;;8.83;;
3573;SDS011;1801;51.050;6.246;2024-01-15T01:27:38;34.30;;;10.37;;
3573;SDS011;1801;51.050;6.246;2024-01-15T01:30:04;38.60;;;11.57;;
3573;SDS011;1801;51.050;6.246;2024-01-15T01:32:29;36.10;;;14.43;;
3573;SDS011;1801;51.050;6.246;2024-01-15T01:34:54;31.90;;;11.57;;
3573;SDS011;1801;51.050;6.246;2024-01-15T01:37:20;31.47;;;11.40;;
3573;SDS011;1801;51.050;6.246;2024-01-15T01:39:45;48.17;;;13.80;;
3573;SDS011;1801;51.050;6.246;2024-01-15T01:42:10;34.80;;;8.50;;
3573;SDS011;1801;51.050;6.246;2024-01-15T01:44:36;36.40;;;10.55;;
3573;SDS011;1801;51.050;6.246;2024-01-15T01:47:01;36.43;;;12.50;;
3573;SDS011;1801;51.050;6.246;2024-01-15T01:49:28;27.98;;;9.00;;
3573;SDS011;1801;51.050;6.246;2024-01-15T01:51:55;34.63;;;10.97;;
3573;SDS011;1801;51.050;6.246;2024-01-15T01:54:21;36.92;;;12.23;;
3573;SDS011;1801;51.050;6.246;2024-01-15T01:56:47;23.90;;;9.17;;
3573;SDS011;1801;51.050;6.246;2024-01-15T01:59:13;40.13;;;13.07;;
3573;SDS011;1801;51.050;6.246;2024-01-15T02:01:38;34.93;;;12.57;;
3573;SDS011;1801;51.050;6.246;2024-01-15T02:04:04;38.73;;;12.93;;
3573;SDS011;1801;51.050;6.246;2024-01-15T02:06:29;51.50;;;16.30;;
3573;SDS011;1801;51.050;6.246;2024-01-15T02:08:54;34.20;;;14.13;;
3573;SDS011;1801;51.050;6.246;2024-01-15T02:11:20;33.97;;;12.23;;
3573;SDS011;1801;51.050;6.246;2024-01-15T02:13:45;40.70;;;10.10;;
3573;SDS011;1801;51.050;6.246;2024-01-15T02:16:10;48.87;;;14.90;;
3573;SDS011;1801;51.050;6.246;2024-01-15T02:18:42;36.80;;;11.70;;
3573;SDS011;1801;51.050;6.246;2024-01-15T02:21:07;50.10;;;11.18;;
3573;SDS011;1801;51.050;6.246;2024-01-15T02:23:33;37.77;;;12.73;;
3573;SDS011;1801;51.050;6.246;2024-01-15T02:25:58;32.83;;;12.73;;
3573;SDS011;1801;51.050;6.246;2024-01-15T02:28:23;39.90;;;13.70;;
3573;SDS011;1801;51.050;6.246;2024-01-15T02:30:48;24.10;;;10.90;;
3573;SDS011;1801;51.050;6.246;2024-01-15T02:33:13;40.03;;;13.70;;
3573;SDS011;1801;51.050;6.246;2024-01-15T02:35:39;37.87;;;9.90;;
3573;SDS011;1801;51.050;6.246;2024-01-15T02:38:04;33.57;;;10.80;;
3573;SDS011;1801;51.050;6.246;2024-01-15T02:40:30;42.73;;;13.13;;
3573;SDS011;1801;51.050;6.246;2024-01-15T02:42:55;37.67;;;10.10;;
3573;SDS011;1801;51.050;6.246;2024-01-15T02:45:21;42.97;;;12.83;;
3573;SDS011;1801;51.050;6.246;2024-01-15T02:47:46;29.53;;;9.20;;
3573;SDS011;1801;51.050;6.246;2024-01-15T02:50:11;48.80;;;14.70;;
3573;SDS011;1801;51.050;6.246;2024-01-15T02:52:36;52.97;;;14.13;;
3573;SDS011;1801;51.050;6.246;2024-01-15T02:55:01;34.10;;;11.80;;
3573;SDS011;1801;51.050;6.246;2024-01-15T02:57:27;31.40;;;11.70;;
3573;SDS011;1801;51.050;6.246;2024-01-15T02:59:52;37.70;;;13.20;;
3573;SDS011;1801;51.050;6.246;2024-01-15T03:02:17;42.83;;;13.63;;
3573;SDS011;1801;51.050;6.246;2024-01-15T03:04:43;14.03;;;5.27;;
3573;SDS011;1801;51.050;6.246;2024-01-15T03:07:08;49.70;;;13.73;;
3573;SDS011;1801;51.050;6.246;2024-01-15T03:09:33;23.93;;;9.67;;
3573;SDS011;1801;51.050;6.246;2024-01-15T03:11:58;36.43;;;12.23;;
3573;SDS011;1801;51.050;6.246;2024-01-15T03:14:23;43.97;;;14.20;;
3573;SDS011;1801;51.050;6.246;2024-01-15T03:16:51;34.45;;;12.43;;
3573;SDS011;1801;51.050;6.246;2024-01-15T03:19:16;43.50;;;13.37;;
3573;SDS011;1801;51.050;6.246;2024-01-15T03:21:41;41.80;;;13.60;;
3573;SDS011;1801;51.050;6.246;2024-01-15T03:24:06;39.70;;;13.40;;
3573;SDS011;1801;51.050;6.246;2024-01-15T03:26:31;28.80;;;12.10;;
3573;SDS011;1801;51.050;6.246;2024-01-15T03:28:57;30.13;;;11.57;;
3573;SDS011;1801;51.050;6.246;2024-01-15T03:31:22;43.23;;;14.60;;
3573;SDS011;1801;51.050;6.246;2024-01-15T03:33:47;32.67;;;10.60;;
3573;SDS011;1801;51.050;6.246;2024-01-15T03:36:12;36.43;;;11.70;;
3573;SDS011;1801;51.050;6.246;2024-01-15T03:38:41;30.33;;;11.47;;
3573;SDS011;1801;51.050;6.246;2024-01-15T03:41:06;29.15;;;9.63;;
3573;SDS011;1801;51.050;6.246;2024-01-15T03:43:31;26.70;;;7.73;;
3573;SDS011;1801;51.050;6.246;2024-01-15T03:45:56;33.43;;;10.80;;
3573;SDS011;1801;51.050;6.246;2024-01-15T03:48:21;32.13;;;12.30;;
3573;SDS011;1801;51.050;6.246;2024-01-15T03:50:47;30.93;;;10.40;;
3573;SDS011;1801;51.050;6.246;2024-01-15T03:53:12;26.10;;;10.27;;
3573;SDS011;1801;51.050;6.246;2024-01-15T03:55:37;29.63;;;9.90;;
3573;SDS011;1801;51.050;6.246;2024-01-15T03:58:02;22.53;;;11.73;;
3573;SDS011;1801;51.050;6.246;2024-01-15T04:00:27;34.30;;;9.93;;
3573;SDS011;1801;51.050;6.246;2024-01-15T04:02:53;24.27;;;8.50;;
3573;SDS011;1801;51.050;6.246;2024-01-15T04:05:19;22.10;;;8.67;;
3573;SDS011;1801;51.050;6.246;2024-01-15T04:07:44;13.20;;;5.50;;
3573;SDS011;1801;51.050;6.246;2024-01-15T04:10:09;19.47;;;9.40;;
3573;SDS011;1801;51.050;6.246;2024-01-15T04:12:34;27.63;;;8.97;;
3573;SDS011;1801;51.050;6.246;2024-01-15T04:14:59;25.27;;;11.07;;
3573;SDS011;1801;51.050;6.246;2024-01-15T04:17:25;24.30;;;9.27;;
3573;SDS011;1801;51.050;6.246;2024-01-15T04:19:50;24.53;;;9.80;;
3573;SDS011;1801;51.050;6.246;2024-01-15T04:22:15;31.93;;;12.13;;
3573;SDS011;1801;51.050;6.246;2024-01-15T04:24:40;37.27;;;10.20;;
3573;SDS011;1801;51.050;6.246;2024-01-15T04:27:06;29.43;;;11.00;;
3573;SDS011;1801;51.050;6.246;2024-01-15T04:29:32;27.27;;;9.77;;
3573;SDS011;1801;51.050;6.246;2024-01-15T04:31:57;18.73;;;9.00;;
3573;SDS011;1801;51.050;6.246;2024-01-15T04:34:22;16.47;;;7.37;;
3573;SDS011;1801;51.050;6.246;2024-01-15T04:36:47;24.07;;;7.53;;
3573;SDS011;1801;51.050;6.246;2024-01-15T04:39:12;28.23;;;9.70;;
3573;SDS011;1801;51.050;6.246;2024-01-15T04:41:38;25.70;;;8.33;;
3573;SDS011;1801;51.050;6.246;2024-01-15T04:44:03;21.10;;;6.33;;
3573;SDS011;1801;51.050;6.246;2024-01-15T04:46:28;17.53;;;7.00;;
3573;SDS011;1801;51.050;6.246;2024-01-15T04:48:53;17.17;;;6.17;;
3573;SDS011;1801;51.050;6.246;2024-01-15T04:51:18;22.93;;;9.83;;
3573;SDS011;1801;51.050;6.246;2024-01-15T04:53:44;13.33;;;6.43;;
3573;SDS011;1801;51.050;6.246;2024-01-15T04:56:09;18.23;;;6.70;;
3573;SDS011;1801;51.050;6.246;2024-01-15T04:58:34;17.20;;;7.00;;
3573;SDS011;1801;51.050;6.246;2024-01-15T05:00:59;13.57;;;5.63;;
3573;SDS011;1801;51.050;6.246;2024-01-15T05:03:24;22.67;;;7.33;;
3573;SDS011;1801;51.050;6.246;2024-01-15T05:05:50;19.73;;;6.13;;
3573;SDS011;1801;51.050;6.246;2024-01-15T05:08:15;14.00;;;7.60;;
3573;SDS011;1801;51.050;6.246;2024-01-15T05:10:40;14.30;;;5.87;;
3573;SDS011;1801;51.050;6.246;2024-01-15T05:13:05;17.50;;;6.07;;
3573;SDS011;1801;51.050;6.246;2024-01-15T05:15:30;19.87;;;7.50;;
3573;SDS011;1801;51.050;6.246;2024-01-15T05:17:56;15.83;;;6.67;;
3573;SDS011;1801;51.050;6.246;2024-01-15T05:20:21;12.63;;;6.27;;
3573;SDS011;1801;51.050;6.246;2024-01-15T05:22:46;22.17;;;7.77;;
3573;SDS011;1801;51.050;6.246;2024-01-15T05:25:12;18.70;;;6.73;;
3573;SDS011;1801;51.050;6.246;2024-01-15T05:27:37;12.53;;;4.97;;
3573;SDS011;1801;51.050;6.246;2024-01-15T05:30:02;21.40;;;7.43;;
3573;SDS011;1801;51.050;6.246;2024-01-15T05:32:28;20.70;;;7.10;;
3573;SDS011;1801;51.050;6.246;2024-01-15T05:34:53;17.30;;;6.33;;
3573;SDS011;1801;51.050;6.246;2024-01-15T05:37:18;24.10;;;7.87;;
3573;SDS011;1801;51.050;6.246;2024-01-15T05:39:43;20.13;;;7.07;;
3573;SDS011;1801;51.050;6.246;2024-01-15T05:42:09;27.57;;;10.77;;
3573;SDS011;1801;51.050;6.246;2024-01-15T05:44:34;27.80;;;8.93;;
3573;SDS011;1801;51.050;6.246;2024-01-15T05:46:59;23.67;;;9.07;;
3573;SDS011;1801;51.050;6.246;2024-01-15T05:49:24;26.30;;;8.80;;
3573;SDS011;1801;51.050;6.246;2024-01-15T05:51:49;24.47;;;8.00;;
3573;SDS011;1801;51.050;6.246;2024-01-15T05:54:17;27.42;;;9.65;;
3573;SDS011;1801;51.050;6.246;2024-01-15T05:56:42;20.52;;;7.80;;
3573;SDS011;1801;51.050;6.246;2024-01-15T05:59:07;16.67;;;5.50;;
3573;SDS011;1801;51.050;6.246;2024-01-15T06:01:32;20.70;;;6.80;;
3573;SDS011;1801;51.050;6.246;2024-01-15T06:03:58;19.60;;;7.10;;
3573;SDS011;1801;51.050;6.246;2024-01-15T06:06:23;9.80;;;5.30;;
3573;SDS011;1801;51.050;6.246;2024-01-15T06:08:48;21.57;;;7.53;;
3573;SDS011;1801;51.050;6.246;2024-01-15T06:11:13;15.40;;;7.40;;
3573;SDS011;1801;51.050;6.246;2024-01-15T06:13:38;23.10;;;8.33;;
3573;SDS011;1801;51.050;6.246;2024-01-15T06:16:11;12.83;;;6.03;;
3573;SDS011;1801;51.050;6.246;2024-01-15T06:18:36;21.00;;;7.05;;
3573;SDS011;1801;51.050;6.246;2024-01-15T06:21:01;21.03;;;8.97;;
3573;SDS011;1801;51.050;6.246;2024-01-15T06:23:27;16.97;;;7.83;;
3573;SDS011;1801;51.050;6.246;2024-01-15T06:25:52;16.83;;;6.90;;
3573;SDS011;1801;51.050;6.246;2024-01-15T06:28:17;18.27;;;7.57;;
3573;SDS011;1801;51.050;6.246;2024-01-15T06:30:42;15.43;;;6.37;;
3573;SDS011;1801;51.050;6.246;2024-01-15T06:33:07;11.67;;;4.70;;
3573;SDS011;1801;51.050;6.246;2024-01-15T06:35:32;10.70;;;5.70;;
3573;SDS011;1801;51.050;6.246;2024-01-15T06:37:59;16.63;;;7.40;;
3573;SDS011;1801;51.050;6.246;2024-01-15T06:40:24;12.60;;;3.77;;
3573;SDS011;1801;51.050;6.246;2024-01-15T06:42:49;21.90;;;7.57;;
3573;SDS011;1801;51.050;6.246;2024-01-15T06:45:15;24.00;;;9.20;;
3573;SDS011;1801;51.050;6.246;2024-01-15T06:47:40;17.73;;;7.27;;
3573;SDS011;1801;51.050;6.246;2024-01-15T06:50:07;24.33;;;9.80;;
3573;SDS011;1801;51.050;6.246;2024-01-15T06:52:32;22.90;;;9.50;;
3573;SDS011;1801;51.050;6.246;2024-01-15T06:54:57;24.80;;;9.80;;
3573;SDS011;1801;51.050;6.246;2024-01-15T06:57:22;19.27;;;8.03;;
3573;SDS011;1801;51.050;6.246;2024-01-15T06:59:48;20.10;;;9.63;;
3573;SDS011;1801;51.050;6.246;2024-01-15T07:02:13;24.63;;;7.33;;
3573;SDS011;1801;51.050;6.246;2024-01-15T07:04:38;14.87;;;6.50;;
3573;SDS011;1801;51.050;6.246;2024-01-15T07:07:03;29.03;;;9.40;;
3573;SDS011;1801;51.050;6.246;2024-01-15T07:09:29;12.70;;;6.57;;
3573;SDS011;1801;51.050;6.246;2024-01-15T07:11:54;27.23;;;10.43;;
3573;SDS011;1801;51.050;6.246;2024-01-15T07:14:22;24.83;;;8.48;;
3573;SDS011;1801;51.050;6.246;2024-01-15T07:16:47;21.70;;;8.77;;
3573;SDS011;1801;51.050;6.246;2024-01-15T07:19:12;34.73;;;10.50;;
3573;SDS011;1801;51.050;6.246;2024-01-15T07:21:37;27.90;;;10.33;;
3573;SDS011;1801;51.050;6.246;2024-01-15T07:24:04;26.15;;;10.27;;
3573;SDS011;1801;51.050;6.246;2024-01-15T07:26:30;20.47;;;9.40;;
3573;SDS011;1801;51.050;6.246;2024-01-15T07:28:55;29.67;;;7.63;;
3573;SDS011;1801;51.050;6.246;2024-01-15T07:31:20;35.83;;;12.10;;
3573;SDS011;1801;51.050;6.246;2024-01-15T07:33:46;25.07;;;9.10;;
3573;SDS011;1801;51.050;6.246;2024-01-15T07:36:11;23.00;;;8.67;;
3573;SDS011;1801;51.050;6.246;2024-01-15T07:38:36;20.47;;;9.73;;
3573;SDS011;1801;51.050;6.246;2024-01-15T07:41:02;18.67;;;8.87;;
3573;SDS011;1801;51.050;6.246;2024-01-15T07:43:27;33.77;;;12.20;;
3573;SDS011;1801;51.050;6.246;2024-01-15T07:45:53;33.57;;;13.23;;
3573;SDS011;1801;51.050;6.246;2024-01-15T07:48:18;19.50;;;8.40;;
3573;SDS011;1801;51.050;6.246;2024-01-15T07:50:43;33.00;;;12.50;;
3573;SDS011;1801;51.050;6.246;2024-01-15T07:53:08;36.57;;;12.17;;
3573;SDS011;1801;51.050;6.246;2024-01-15T07:55:33;17.90;;;8.43;;
3573;SDS011;1801;51.050;6.246;2024-01-15T07:57:59;30.90;;;11.57;;
3573;SDS011;1801;51.050;6.246;2024-01-15T08:00:24;16.17;;;7.30;;
3573;SDS011;1801;51.050;6.246;2024-01-15T08:02:49;27.47;;;9.80;;
3573;SDS011;1801;51.050;6.246;2024-01-15T08:05:16;22.88;;;9.50;;
3573;SDS011;1801;51.050;6.246;2024-01-15T08:07:41;23.23;;;9.20;;
3573;SDS011;1801;51.050;6.246;2024-01-15T08:10:06;26.13;;;10.43;;
3573;SDS011;1801;51.050;6.246;2024-01-15T08:12:32;26.40;;;10.83;;
3573;SDS011;1801;51.050;6.246;2024-01-15T08:14:57;30.40;;;13.80;;
3573;SDS011;1801;51.050;6.246;2024-01-15T08:17:22;32.83;;;13.17;;
3573;SDS011;1801;51.050;6.246;2024-01-15T08:19:48;26.43;;;11.00;;
3573;SDS011;1801;51.050;6.246;2024-01-15T08:22:14;31.60;;;12.90;;
3573;SDS011;1801;51.050;6.246;2024-01-15T08:24:39;32.67;;;11.47;;
3573;SDS011;1801;51.050;6.246;2024-01-15T08:27:04;25.37;;;9.20;;
3573;SDS011;1801;51.050;6.246;2024-01-15T08:29:29;19.10;;;7.33;;
3573;SDS011;1801;51.050;6.246;2024-01-15T08:31:58;21.85;;;10.32;;
3573;SDS011;1801;51.050;6.246;2024-01-15T08:34:23;16.70;;;8.70;;
3573;SDS011;1801;51.050;6.246;2024-01-15T08:36:48;23.10;;;8.57;;
3573;SDS011;1801;51.050;6.246;2024-01-15T08:39:13;19.13;;;6.70;;
3573;SDS011;1801;51.050;6.246;2024-01-15T08:41:39;14.43;;;5.27;;
3573;SDS011;1801;51.050;6.246;2024-01-15T08:44:04;18.10;;;7.33;;
3573;SDS011;1801;51.050;6.246;2024-01-15T08:46:29;12.03;;;6.47;;
3573;SDS011;1801;51.050;6.246;2024-01-15T08:48:54;10.63;;;4.87;;
3573;SDS011;1801;51.050;6.246;2024-01-15T08:51:20;26.90;;;8.97;;
3573;SDS011;1801;51.050;6.246;2024-01-15T08:53:45;14.83;;;6.33;;
3573;SDS011;1801;51.050;6.246;2024-01-15T08:56:10;8.77;;;3.40;;
3573;SDS011;1801;51.050;6.246;2024-01-15T08:58:35;24.93;;;7.93;;
3573;SDS011;1801;51.050;6.246;2024-01-15T09:01:01;12.87;;;6.37;;
3573;SDS011;1801;51.050;6.246;2024-01-15T09:03:26;17.07;;;7.83;;
3573;SDS011;1801;51.050;6.246;2024-01-15T09:05:51;10.67;;;5.97;;
3573;SDS011;1801;51.050;6.246;2024-01-15T09:08:16;9.47;;;4.60;;
3573;SDS011;1801;51.050;6.246;2024-01-15T09:10:42;14.40;;;6.03;;
3573;SDS011;1801;51.050;6.246;2024-01-15T09:13:07;15.37;;;6.90;;
3573;SDS011;1801;51.050;6.246;2024-01-15T09:15:33;16.30;;;7.00;;
3573;SDS011;1801;51.050;6.246;2024-01-15T09:17:58;12.10;;;5.30;;
3573;SDS011;1801;51.050;6.246;2024-01-15T09:20:24;13.70;;;5.40;;
3573;SDS011;1801;51.050;6.246;2024-01-15T09:22:51;9.00;;;5.35;;
3573;SDS011;1801;51.050;6.246;2024-01-15T09:25:16;15.77;;;4.97;;
3573;SDS011;1801;51.050;6.246;2024-01-15T09:27:41;9.27;;;4.97;;
3573;SDS011;1801;51.050;6.246;2024-01-15T09:30:07;11.33;;;5.93;;
3573;SDS011;1801;51.050;6.246;2024-01-15T09:32:33;10.07;;;4.72;;
3573;SDS011;1801;51.050;6.246;2024-01-15T09:34:58;8.83;;;4.60;;
3573;SDS011;1801;51.050;6.246;2024-01-15T09:37:23;7.90;;;4.77;;
3573;SDS011;1801;51.050;6.246;2024-01-15T09:39:48;8.03;;;4.30;;
3573;SDS011;1801;51.050;6.246;2024-01-15T09:42:14;10.17;;;5.40;;
3573;SDS011;1801;51.050;6.246;2024-01-15T09:44:40;7.17;;;4.27;;
3573;SDS011;1801;51.050;6.246;2024-01-15T09:47:06;6.28;;;3.60;;
3573;SDS011;1801;51.050;6.246;2024-01-15T09:49:31;18.40;;;3.60;;
3573;SDS011;1801;51.050;6.246;2024-01-15T09:51:57;5.10;;;3.07;;
3573;SDS011;1801;51.050;6.246;2024-01-15T09:54:23;4.82;;;3.25;;
3573;SDS011;1801;51.050;6.246;2024-01-15T09:56:48;5.30;;;2.73;;
3573;SDS011;1801;51.050;6.246;2024-01-15T09:59:17;7.00;;;3.30;;
3573;SDS011;1801;51.050;6.246;2024-01-15T10:01:43;6.57;;;3.03;;
3573;SDS011;1801;51.050;6.246;2024-01-15T10:04:09;6.18;;;2.50;;
3573;SDS011;1801;51.050;6.246;2024-01-15T10:06:34;4.30;;;2.60;;
3573;SDS011;1801;51.050;6.246;2024-01-15T10:09:00;4.57;;;2.57;;
3573;SDS011;1801;51.050;6.246;2024-01-15T10:11:25;5.10;;;2.70;;
3573;SDS011;1801;51.050;6.246;2024-01-15T10:13:51;3.20;;;1.77;;
3573;SDS011;1801;51.050;6.246;2024-01-15T10:16:18;3.13;;;2.45;;
3573;SDS011;1801;51.050;6.246;2024-01-15T10:18:43;4.80;;;3.07;;
3573;SDS011;1801;51.050;6.246;2024-01-15T10:21:08;1.40;;;1.30;;
3573;SDS011;1801;51.050;6.246;2024-01-15T10:23:34;1.63;;;1.50;;
3573;SDS011;1801;51.050;6.246;2024-01-15T10:25:59;10.13;;;2.47;;
3573;SDS011;1801;51.050;6.246;2024-01-15T10:28:28;6.23;;;2.40;;
3573;SDS011;1801;51.050;6.246;2024-01-15T10:30:56;3.22;;;1.65;;
3573;SDS011;1801;51.050;6.246;2024-01-15T10:33:22;2.00;;;1.23;;
3573;SDS011;1801;51.050;6.246;2024-01-15T10:35:50;1.90;;;1.63;;
3573;SDS011;1801;51.050;6.246;2024-01-15T10:38:15;2.23;;;2.00;;
3573;SDS011;1801;51.050;6.246;2024-01-15T10:40:43;12.60;;;2.92;;
3573;SDS011;1801;51.050;6.246;2024-01-15T10:43:08;6.20;;;3.37;;
3573;SDS011;1801;51.050;6.246;2024-01-15T10:45:33;4.97;;;2.73;;
3573;SDS011;1801;51.050;6.246;2024-01-15T10:47:58;10.40;;;4.53;;
3573;SDS011;1801;51.050;6.246;2024-01-15T10:50:24;5.30;;;3.60;;
3573;SDS011;1801;51.050;6.246;2024-01-15T10:52:50;6.63;;;4.00;;
3573;SDS011;1801;51.050;6.246;2024-01-15T10:55:16;6.30;;;3.75;;
3573;SDS011;1801;51.050;6.246;2024-01-15T10:57:42;4.23;;;2.73;;
3573;SDS011;1801;51.050;6.246;2024-01-15T11:00:10;6.90;;;3.97;;
3573;SDS011;1801;51.050;6.246;2024-01-15T11:02:39;8.63;;;4.90;;
3573;SDS011;1801;51.050;6.246;2024-01-15T11:05:05;5.90;;;3.77;;
3573;SDS011;1801;51.050;6.246;2024-01-15T11:07:30;9.20;;;4.17;;
3573;SDS011;1801;51.050;6.246;2024-01-15T11:09:55;8.70;;;3.80;;
3573;SDS011;1801;51.050;6.246;2024-01-15T11:12:20;7.40;;;4.50;;
3573;SDS011;1801;51.050;6.246;2024-01-15T11:14:46;16.80;;;6.13;;
3573;SDS011;1801;51.050;6.246;2024-01-15T11:17:12;12.05;;;5.30;;
3573;SDS011;1801;51.050;6.246;2024-01-15T11:22:09;5.38;;;2.83;;
3573;SDS011;1801;51.050;6.246;2024-01-15T11:27:01;15.02;;;6.60;;
3573;SDS011;1801;51.050;6.246;2024-01-15T11:34:19;14.80;;;4.03;;
3573;SDS011;1801;51.050;6.246;2024-01-15T11:42:02;19.80;;;6.10;;
3573;SDS011;1801;51.050;6.246;2024-01-15T11:44:28;12.60;;;5.70;;
3573;SDS011;1801;51.050;6.246;2024-01-15T11:46:57;9.37;;;4.87;;
3573;SDS011;1801;51.050;6.246;2024-01-15T11:49:47;17.35;;;6.00;;
3573;SDS011;1801;51.050;6.246;2024-01-15T11:52:10;12.32;;;5.72;;
3573;SDS011;1801;51.050;6.246;2024-01-15T11:54:37;10.20;;;3.70;;
3573;SDS011;1801;51.050;6.246;2024-01-15T11:57:04;15.02;;;4.53;;
3573;SDS011;1801;51.050;6.246;2024-01-15T11:59:33;18.35;;;4.45;;
3573;SDS011;1801;51.050;6.246;2024-01-15T12:01:59;7.67;;;4.53;;
3573;SDS011;1801;51.050;6.246;2024-01-15T12:04:24;6.30;;;4.17;;
3573;SDS011;1801;51.050;6.246;2024-01-15T12:06:49;8.90;;;5.10;;
3573;SDS011;1801;51.050;6.246;2024-01-15T12:09:14;8.33;;;4.10;;
3573;SDS011;1801;51.050;6.246;2024-01-15T12:11:40;14.83;;;5.17;;
3573;SDS011;1801;51.050;6.246;2024-01-15T12:14:07;16.40;;;3.58;;
3573;SDS011;1801;51.050;6.246;2024-01-15T12:16:33;5.13;;;3.90;;
3573;SDS011;1801;51.050;6.246;2024-01-15T12:18:59;5.43;;;3.43;;
3573;SDS011;1801;51.050;6.246;2024-01-15T12:21:26;10.57;;;2.78;;
3573;SDS011;1801;51.050;6.246;2024-01-15T12:23:51;15.93;;;3.97;;
3573;SDS011;1801;51.050;6.246;2024-01-15T12:26:17;5.35;;;3.28;;
3573;SDS011;1801;51.050;6.246;2024-01-15T12:28:42;4.77;;;2.77;;
3573;SDS011;1801;51.050;6.246;2024-01-15T12:31:08;4.43;;;2.53;;
3573;SDS011;1801;51.050;6.246;2024-01-15T12:33:33;5.30;;;3.70;;
3573;SDS011;1801;51.050;6.246;2024-01-15T12:35:58;7.23;;;2.87;;
3573;SDS011;1801;51.050;6.246;2024-01-15T12:38:24;6.80;;;3.70;;
3573;SDS011;1801;51.050;6.246;2024-01-15T12:40:49;3.17;;;2.70;;
3573;SDS011;1801;51.050;6.246;2024-01-15T12:43:14;5.77;;;2.90;;
3573;SDS011;1801;51.050;6.246;2024-01-15T12:45:40;6.60;;;2.87;;
3573;SDS011;1801;51.050;6.246;2024-01-15T12:48:05;9.17;;;3.17;;
3573;SDS011;1801;51.050;6.246;2024-01-15T12:50:30;4.60;;;2.50;;
3573;SDS011;1801;51.050;6.246;2024-01-15T12:52:58;3.40;;;3.05;;
3573;SDS011;1801;51.050;6.246;2024-01-15T12:55:24;8.60;;;4.53;;
3573;SDS011;1801;51.050;6.246;2024-01-15T12:57:49;7.10;;;2.93;;
3573;SDS011;1801;51.050;6.246;2024-01-15T13:00:17;5.38;;;3.15;;
3573;SDS011;1801;51.050;6.246;2024-01-15T13:02:42;3.50;;;2.80;;
3573;SDS011;1801;51.050;6.246;2024-01-15T13:05:08;5.10;;;1.77;;
3573;SDS011;1801;51.050;6.246;2024-01-15T13:07:33;4.30;;;2.47;;
3573;SDS011;1801;51.050;6.246;2024-01-15T13:09:59;4.10;;;2.10;;
3573;SDS011;1801;51.050;6.246;2024-01-15T13:12:24;14.00;;;1.93;;
3573;SDS011;1801;51.050;6.246;2024-01-15T13:14:49;2.67;;;2.07;;
3573;SDS011;1801;51.050;6.246;2024-01-15T13:17:14;1.63;;;1.47;;
3573;SDS011;1801;51.050;6.246;2024-01-15T13:19:40;3.87;;;1.40;;
3573;SDS011;1801;51.050;6.246;2024-01-15T13:22:05;5.60;;;1.60;;
3573;SDS011;1801;51.050;6.246;2024-01-15T13:24:32;2.13;;;1.27;;
3573;SDS011;1801;51.050;6.246;2024-01-15T13:26:57;2.77;;;1.30;;
3573;SDS011;1801;51.050;6.246;2024-01-15T13:29:22;2.80;;;1.20;;
3573;SDS011;1801;51.050;6.246;2024-01-15T13:31:48;1.17;;;1.07;;
3573;SDS011;1801;51.050;6.246;2024-01-15T13:34:13;2.00;;;1.50;;
3573;SDS011;1801;51.050;6.246;2024-01-15T13:36:38;1.43;;;1.33;;
3573;SDS011;1801;51.050;6.246;2024-01-15T13:39:04;2.40;;;1.60;;
3573;SDS011;1801;51.050;6.246;2024-01-15T13:41:33;3.42;;;1.77;;
3573;SDS011;1801;51.050;6.246;2024-01-15T13:43:58;3.90;;;1.63;;
3573;SDS011;1801;51.050;6.246;2024-01-15T13:46:24;1.65;;;1.33;;
3573;SDS011;1801;51.050;6.246;2024-01-15T13:48:51;3.13;;;1.42;;
3573;SDS011;1801;51.050;6.246;2024-01-15T13:51:16;4.43;;;2.07;;
3573;SDS011;1801;51.050;6.246;2024-01-15T13:53:42;1.53;;;1.30;;
3573;SDS011;1801;51.050;6.246;2024-01-15T13:56:07;3.73;;;1.47;;
3573;SDS011;1801;51.050;6.246;2024-01-15T13:58:35;2.28;;;1.67;;
3573;SDS011;1801;51.050;6.246;2024-01-15T14:01:00;2.27;;;1.30;;
3573;SDS011;1801;51.050;6.246;2024-01-15T14:03:25;1.43;;;1.33;;
3573;SDS011;1801;51.050;6.246;2024-01-15T14:05:53;5.17;;;1.97;;
3573;SDS011;1801;51.050;6.246;2024-01-15T14:08:19;0.70;;;0.70;;
3573;SDS011;1801;51.050;6.246;2024-01-15T14:10:44;2.30;;;1.70;;
3573;SDS011;1801;51.050;6.246;2024-01-15T14:13:10;2.70;;;1.50;;
3573;SDS011;1801;51.050;6.246;2024-01-15T14:15:35;1.63;;;1.43;;
3573;SDS011;1801;51.050;6.246;2024-01-15T14:18:00;3.23;;;1.23;;
3573;SDS011;1801;51.050;6.246;2024-01-15T14:20:26;2.03;;;1.13;;
3573;SDS011;1801;51.050;6.246;2024-01-15T14:22:51;2.17;;;1.10;;
3573;SDS011;1801;51.050;6.246;2024-01-15T14:25:16;3.17;;;1.90;;
3573;SDS011;1801;51.050;6.246;2024-01-15T14:27:41;3.70;;;1.90;;
3573;SDS011;1801;51.050;6.246;2024-01-15T14:30:07;1.30;;;1.07;;
3573;SDS011;1801;51.050;6.246;2024-01-15T14:32:33;3.00;;;1.90;;
3573;SDS011;1801;51.050;6.246;2024-01-15T14:34:58;2.97;;;1.27;;
3573;SDS011;1801;51.050;6.246;2024-01-15T14:37:24;2.30;;;1.77;;
3573;SDS011;1801;51.050;6.246;2024-01-15T14:39:49;0.80;;;0.70;;
3573;SDS011;1801;51.050;6.246;2024-01-15T14:42:14;3.57;;;1.40;;
3573;SDS011;1801;51.050;6.246;2024-01-15T14:44:39;0.70;;;0.63;;
3573;SDS011;1801;51.050;6.246;2024-01-15T14:47:06;4.85;;;1.65;;
3573;SDS011;1801;51.050;6.246;2024-01-15T14:49:31;4.10;;;2.67;;
3573;SDS011;1801;51.050;6.246;2024-01-15T14:51:56;3.90;;;2.30;;
3573;SDS011;1801;51.050;6.246;2024-01-15T14:54:21;6.20;;;2.20;;
3573;SDS011;1801;51.050;6.246;2024-01-15T14:56:47;6.60;;;2.50;;
3573;SDS011;1801;51.050;6.246;2024-01-15T14:59:12;4.80;;;2.63;;
3573;SDS011;1801;51.050;6.246;2024-01-15T15:01:39;3.20;;;2.58;;
3573;SDS011;1801;51.050;6.246;2024-01-15T15:04:05;21.63;;;3.92;;
3573;SDS011;1801;51.050;6.246;2024-01-15T15:06:30;5.43;;;2.73;;